sensor_id;sensor_type;location;lat;lon;timestamp;pressure;altitude;pressure_sealevel;temperature;humidity
68075;BME280;54864;52.002;5.468;2023-01-31T00:00:46;102326.91;;;2.96;78.36
68075;BME280;54864;52.002;5.468;2023-01-31T00:01:48;102331.16;;;2.90;78.49
68075;BME280;54864;52.002;5.468;2023-01-31T00:02:50;102333.66;;;2.77;78.76
68075;BME280;54864;52.002;5.468;2023-01-31T00:03:52;102337.09;;;2.76;79.12
68075;BME280;54864;52.002;5.468;2023-01-31T00:04:53;102332.81;;;2.80;79.02
68075;BME280;54864;52.002;5.468;2023-01-31T00:05:55;102334.53;;;2.78;79.15
68075;BME280;54864;52.002;5.468;2023-01-31T00:06:56;102326.69;;;2.75;79.32
68075;BME280;54864;52.002;5.468;2023-01-31T00:07:58;102331.88;;;2.73;79.41
68075;BME280;54864;52.002;5.468;2023-01-31T00:09:00;102336.13;;;2.67;79.30
68075;BME280;54864;52.002;5.468;2023-01-31T00:10:03;102331.84;;;2.72;79.59
68075;BME280;54864;52.002;5.468;2023-01-31T00:11:04;102330.13;;;2.74;79.35
68075;BME280;54864;52.002;5.468;2023-01-31T00:12:06;102326.66;;;2.73;79.29
68075;BME280;54864;52.002;5.468;2023-01-31T00:13:07;102335.28;;;2.69;79.43
68075;BME280;54864;52.002;5.468;2023-01-31T00:14:08;102335.38;;;2.77;78.94
68075;BME280;54864;52.002;5.468;2023-01-31T00:15:10;102338.84;;;2.77;79.14
68075;BME280;54864;52.002;5.468;2023-01-31T00:16:16;102337.16;;;2.81;78.65
68075;BME280;54864;52.002;5.468;2023-01-31T00:17:18;102338.06;;;2.84;78.87
68075;BME280;54864;52.002;5.468;2023-01-31T00:18:21;102338.00;;;2.78;78.48
68075;BME280;54864;52.002;5.468;2023-01-31T00:19:22;102335.38;;;2.77;79.02
68075;BME280;54864;52.002;5.468;2023-01-31T00:20:25;102333.41;;;2.59;78.73
68075;BME280;54864;52.002;5.468;2023-01-31T00:21:27;102330.75;;;2.54;79.45
68075;BME280;54864;52.002;5.468;2023-01-31T00:22:30;102335.91;;;2.50;79.79
68075;BME280;54864;52.002;5.468;2023-01-31T00:23:30;102332.47;;;2.52;79.42
68075;BME280;54864;52.002;5.468;2023-01-31T00:24:32;102327.25;;;2.51;79.24
68075;BME280;54864;52.002;5.468;2023-01-31T00:25:33;102332.44;;;2.49;79.33
68075;BME280;54864;52.002;5.468;2023-01-31T00:26:34;102335.91;;;2.50;79.71
68075;BME280;54864;52.002;5.468;2023-01-31T00:27:35;102325.53;;;2.54;79.42
68075;BME280;54864;52.002;5.468;2023-01-31T00:28:37;102326.44;;;2.58;79.28
68075;BME280;54864;52.002;5.468;2023-01-31T00:29:38;102321.22;;;2.55;79.27
68075;BME280;54864;52.002;5.468;2023-01-31T00:30:40;102317.78;;;2.58;79.07
68075;BME280;54864;52.002;5.468;2023-01-31T00:31:41;102316.84;;;2.52;79.47
68075;BME280;54864;52.002;5.468;2023-01-31T00:32:42;102316.03;;;2.57;79.41
68075;BME280;54864;52.002;5.468;2023-01-31T00:33:45;102310.75;;;2.52;79.57
68075;BME280;54864;52.002;5.468;2023-01-31T00:34:48;102313.41;;;2.57;79.25
68075;BME280;54864;52.002;5.468;2023-01-31T00:35:48;102307.34;;;2.56;79.57
68075;BME280;54864;52.002;5.468;2023-01-31T00:36:50;102304.75;;;2.58;79.01
68075;BME280;54864;52.002;5.468;2023-01-31T00:37:51;102300.28;;;2.46;79.61
68075;BME280;54864;52.002;5.468;2023-01-31T00:38:54;102301.13;;;2.45;79.67
68075;BME280;54864;52.002;5.468;2023-01-31T00:39:55;102292.41;;;2.40;79.93
68075;BME280;54864;52.002;5.468;2023-01-31T00:40:56;102298.59;;;2.51;79.94
68075;BME280;54864;52.002;5.468;2023-01-31T00:41:57;102294.25;;;2.50;79.46
68075;BME280;54864;52.002;5.468;2023-01-31T00:43:01;102301.25;;;2.55;79.77
68075;BME280;54864;52.002;5.468;2023-01-31T00:44:03;102304.75;;;2.58;79.65
68075;BME280;54864;52.002;5.468;2023-01-31T00:45:06;102301.25;;;2.55;79.91
68075;BME280;54864;52.002;5.468;2023-01-31T00:46:06;102292.63;;;2.60;79.87
68075;BME280;54864;52.002;5.468;2023-01-31T00:47:08;102297.03;;;2.64;79.71
68075;BME280;54864;52.002;5.468;2023-01-31T00:48:09;102285.81;;;2.68;79.21
68075;BME280;54864;52.002;5.468;2023-01-31T00:49:12;102284.97;;;2.70;78.85
68075;BME280;54864;52.002;5.468;2023-01-31T00:50:14;102283.19;;;2.68;79.21
68075;BME280;54864;52.002;5.468;2023-01-31T00:51:16;102288.41;;;2.66;79.73
68075;BME280;54864;52.002;5.468;2023-01-31T00:52:17;102283.19;;;2.66;79.55
68075;BME280;54864;52.002;5.468;2023-01-31T00:53:20;102279.63;;;2.60;79.73
68075;BME280;54864;52.002;5.468;2023-01-31T00:54:23;102291.00;;;2.68;79.93
68075;BME280;54864;52.002;5.468;2023-01-31T00:55:24;102289.28;;;2.67;79.33
68075;BME280;54864;52.002;5.468;2023-01-31T00:56:25;102286.63;;;2.64;80.02
68075;BME280;54864;52.002;5.468;2023-01-31T00:57:27;102284.06;;;2.67;79.82
68075;BME280;54864;52.002;5.468;2023-01-31T00:58:28;102284.06;;;2.68;79.63
68075;BME280;54864;52.002;5.468;2023-01-31T00:59:30;102287.59;;;2.73;79.36
68075;BME280;54864;52.002;5.468;2023-01-31T01:00:32;102285.88;;;2.74;79.51
68075;BME280;54864;52.002;5.468;2023-01-31T01:01:34;102284.97;;;2.70;79.77
68075;BME280;54864;52.002;5.468;2023-01-31T01:02:35;102290.19;;;2.70;79.70
68075;BME280;54864;52.002;5.468;2023-01-31T01:03:37;102298.84;;;2.69;79.46
68075;BME280;54864;52.002;5.468;2023-01-31T01:04:40;102286.50;;;2.54;79.88
68075;BME280;54864;52.002;5.468;2023-01-31T01:05:42;102283.03;;;2.54;80.28
68075;BME280;54864;52.002;5.468;2023-01-31T01:06:43;102279.63;;;2.60;79.67
68075;BME280;54864;52.002;5.468;2023-01-31T01:07:46;102281.41;;;2.61;79.44
68075;BME280;54864;52.002;5.468;2023-01-31T01:08:47;102279.69;;;2.64;79.17
68075;BME280;54864;52.002;5.468;2023-01-31T01:09:49;102268.47;;;2.68;79.36
68075;BME280;54864;52.002;5.468;2023-01-31T01:10:51;102271.00;;;2.64;78.99
68075;BME280;54864;52.002;5.468;2023-01-31T01:11:53;102273.63;;;2.64;78.86
68075;BME280;54864;52.002;5.468;2023-01-31T01:12:54;102275.34;;;2.63;79.13
68075;BME280;54864;52.002;5.468;2023-01-31T01:13:57;102276.13;;;2.58;79.35
68075;BME280;54864;52.002;5.468;2023-01-31T01:14:58;102272.47;;;2.42;79.67
68075;BME280;54864;52.002;5.468;2023-01-31T01:16:03;102269.09;;;2.49;79.44
68075;BME280;54864;52.002;5.468;2023-01-31T01:17:04;102271.63;;;2.44;79.44
68075;BME280;54864;52.002;5.468;2023-01-31T01:18:06;102269.88;;;2.43;79.67
68075;BME280;54864;52.002;5.468;2023-01-31T01:19:11;102267.28;;;2.42;79.57
68075;BME280;54864;52.002;5.468;2023-01-31T01:20:14;102269.03;;;2.43;79.46
68075;BME280;54864;52.002;5.468;2023-01-31T01:21:17;102268.09;;;2.39;79.68
68075;BME280;54864;52.002;5.468;2023-01-31T01:22:19;102264.75;;;2.48;79.38
68075;BME280;54864;52.002;5.468;2023-01-31T01:23:19;102269.91;;;2.45;79.32
68075;BME280;54864;52.002;5.468;2023-01-31T01:24:21;102269.75;;;2.31;79.94
68075;BME280;54864;52.002;5.468;2023-01-31T01:25:22;102266.28;;;2.31;80.27
68075;BME280;54864;52.002;5.468;2023-01-31T01:26:29;102261.06;;;2.31;80.11
68075;BME280;54864;52.002;5.468;2023-01-31T01:27:31;102253.19;;;2.23;80.19
68075;BME280;54864;52.002;5.468;2023-01-31T01:28:33;102267.13;;;2.30;80.18
68075;BME280;54864;52.002;5.468;2023-01-31T01:29:34;102271.56;;;2.37;80.01
68075;BME280;54864;52.002;5.468;2023-01-31T01:30:36;102259.41;;;2.36;80.38
68075;BME280;54864;52.002;5.468;2023-01-31T01:31:38;102261.94;;;2.31;80.10
68075;BME280;54864;52.002;5.468;2023-01-31T01:32:40;102259.28;;;2.25;80.32
68075;BME280;54864;52.002;5.468;2023-01-31T01:33:41;102257.66;;;2.35;80.13
68075;BME280;54864;52.002;5.468;2023-01-31T01:34:43;102256.69;;;2.27;80.68
68075;BME280;54864;52.002;5.468;2023-01-31T01:35:47;102263.66;;;2.31;80.57
68075;BME280;54864;52.002;5.468;2023-01-31T01:36:47;102253.25;;;2.31;80.44
68075;BME280;54864;52.002;5.468;2023-01-31T01:37:49;102257.50;;;2.22;80.60
68075;BME280;54864;52.002;5.468;2023-01-31T01:38:50;102258.31;;;2.18;81.09
68075;BME280;54864;52.002;5.468;2023-01-31T01:39:52;102260.16;;;2.27;81.28
68075;BME280;54864;52.002;5.468;2023-01-31T01:40:53;102257.56;;;2.27;81.17
68075;BME280;54864;52.002;5.468;2023-01-31T01:41:55;102250.50;;;2.17;81.48
68075;BME280;54864;52.002;5.468;2023-01-31T01:42:56;102251.47;;;2.25;81.70
68075;BME280;54864;52.002;5.468;2023-01-31T01:43:59;102256.75;;;2.33;80.89
68075;BME280;54864;52.002;5.468;2023-01-31T01:45:01;102252.25;;;2.19;81.68
68075;BME280;54864;52.002;5.468;2023-01-31T01:46:05;102250.66;;;2.29;81.37
68075;BME280;54864;52.002;5.468;2023-01-31T01:47:12;102254.13;;;2.30;81.37
68075;BME280;54864;52.002;5.468;2023-01-31T01:48:16;102258.44;;;2.29;81.61
68075;BME280;54864;52.002;5.468;2023-01-31T01:49:20;102262.00;;;2.37;81.23
68075;BME280;54864;52.002;5.468;2023-01-31T01:50:27;102257.63;;;2.33;81.79
68075;BME280;54864;52.002;5.468;2023-01-31T01:51:32;102258.41;;;2.25;82.25
68075;BME280;54864;52.002;5.468;2023-01-31T01:52:38;102266.22;;;2.26;82.20
68075;BME280;54864;52.002;5.468;2023-01-31T01:53:43;102268.09;;;2.39;82.28
68075;BME280;54864;52.002;5.468;2023-01-31T01:54:48;102269.88;;;2.42;81.89
68075;BME280;54864;52.002;5.468;2023-01-31T01:55:52;102263.72;;;2.35;82.11
68075;BME280;54864;52.002;5.468;2023-01-31T01:56:58;102267.22;;;2.37;82.06
68075;BME280;54864;52.002;5.468;2023-01-31T01:58:05;102272.53;;;2.46;82.25
68075;BME280;54864;52.002;5.468;2023-01-31T01:59:12;102256.06;;;2.49;81.70
68075;BME280;54864;52.002;5.468;2023-01-31T02:00:18;102253.41;;;2.44;82.54
68075;BME280;54864;52.002;5.468;2023-01-31T02:01:21;102263.97;;;2.58;82.18
68075;BME280;54864;52.002;5.468;2023-01-31T02:02:22;102271.00;;;2.64;82.51
68075;BME280;54864;52.002;5.468;2023-01-31T02:03:24;102270.91;;;2.56;82.33
68075;BME280;54864;52.002;5.468;2023-01-31T02:04:29;102270.16;;;2.65;82.38
68075;BME280;54864;52.002;5.468;2023-01-31T02:05:35;102265.84;;;2.67;82.68
68075;BME280;54864;52.002;5.468;2023-01-31T02:06:41;102265.88;;;2.70;83.06
68075;BME280;54864;52.002;5.468;2023-01-31T02:07:42;102259.84;;;2.75;82.50
68075;BME280;54864;52.002;5.468;2023-01-31T02:08:44;102264.19;;;2.75;82.56
68075;BME280;54864;52.002;5.468;2023-01-31T02:09:49;102265.09;;;2.80;82.27
68075;BME280;54864;52.002;5.468;2023-01-31T02:10:56;102271.16;;;2.77;83.00
68075;BME280;54864;52.002;5.468;2023-01-31T02:11:59;102271.19;;;2.80;82.61
68075;BME280;54864;52.002;5.468;2023-01-31T02:13:03;102270.25;;;2.75;83.05
68075;BME280;54864;52.002;5.468;2023-01-31T02:14:08;102266.88;;;2.84;82.79
68075;BME280;54864;52.002;5.468;2023-01-31T02:15:09;102269.56;;;2.92;83.03
68075;BME280;54864;52.002;5.468;2023-01-31T02:16:11;102273.03;;;2.94;82.88
68075;BME280;54864;52.002;5.468;2023-01-31T02:17:14;102266.09;;;2.94;82.92
68075;BME280;54864;52.002;5.468;2023-01-31T02:18:18;102269.47;;;2.84;83.24
68075;BME280;54864;52.002;5.468;2023-01-31T02:19:28;102261.78;;;2.96;83.63
68075;BME280;54864;52.002;5.468;2023-01-31T02:22:17;102249.66;;;3.00;83.71
68075;BME280;54864;52.002;5.468;2023-01-31T02:23:50;102271.50;;;3.15;83.83
68075;BME280;54864;52.002;5.468;2023-01-31T02:25:26;102272.34;;;3.14;83.97
68075;BME280;54864;52.002;5.468;2023-01-31T02:26:53;102265.47;;;3.21;83.84
68075;BME280;54864;52.002;5.468;2023-01-31T02:29:51;102262.09;;;3.31;84.61
68075;BME280;54864;52.002;5.468;2023-01-31T02:31:19;102255.16;;;3.35;84.56
68075;BME280;54864;52.002;5.468;2023-01-31T02:32:43;102268.28;;;3.47;84.92
68075;BME280;54864;52.002;5.468;2023-01-31T02:33:51;102261.34;;;3.46;84.49
68075;BME280;54864;52.002;5.468;2023-01-31T02:35:01;102264.00;;;3.55;84.44
68075;BME280;54864;52.002;5.468;2023-01-31T02:36:14;102268.41;;;3.65;86.32
68075;BME280;54864;52.002;5.468;2023-01-31T02:37:28;102264.06;;;3.66;86.76
68075;BME280;54864;52.002;5.468;2023-01-31T02:38:43;102264.16;;;3.78;86.24
68075;BME280;54864;52.002;5.468;2023-01-31T02:40:00;102262.47;;;3.88;85.55
68075;BME280;54864;52.002;5.468;2023-01-31T02:41:12;102264.25;;;3.90;84.92
68075;BME280;54864;52.002;5.468;2023-01-31T02:42:23;102257.31;;;3.97;85.19
68075;BME280;54864;52.002;5.468;2023-01-31T02:43:34;102248.63;;;3.98;84.69
68075;BME280;54864;52.002;5.468;2023-01-31T02:45:04;102253.00;;;4.02;84.95
68075;BME280;54864;52.002;5.468;2023-01-31T02:46:09;102255.63;;;4.08;85.22
68075;BME280;54864;52.002;5.468;2023-01-31T02:47:18;102238.25;;;4.13;85.15
68075;BME280;54864;52.002;5.468;2023-01-31T02:48:33;102245.25;;;4.25;84.71
68075;BME280;54864;52.002;5.468;2023-01-31T02:49:40;102241.78;;;4.24;84.50
68075;BME280;54864;52.002;5.468;2023-01-31T02:50:49;102239.19;;;4.32;85.39
68075;BME280;54864;52.002;5.468;2023-01-31T02:51:56;102233.09;;;4.36;85.44
68075;BME280;54864;52.002;5.468;2023-01-31T02:53:17;102231.34;;;4.26;86.30
68075;BME280;54864;52.002;5.468;2023-01-31T02:54:23;102233.06;;;4.24;86.50
68075;BME280;54864;52.002;5.468;2023-01-31T02:55:52;102227.91;;;4.42;86.35
68075;BME280;54864;52.002;5.468;2023-01-31T02:57:13;102224.47;;;4.55;86.42
68075;BME280;54864;52.002;5.468;2023-01-31T02:58:17;102229.69;;;4.55;86.14
68075;BME280;54864;52.002;5.468;2023-01-31T02:59:20;102228.84;;;4.56;85.96
68075;BME280;54864;52.002;5.468;2023-01-31T03:00:28;102231.47;;;4.64;86.64
68075;BME280;54864;52.002;5.468;2023-01-31T03:01:34;102233.22;;;4.75;85.79
68075;BME280;54864;52.002;5.468;2023-01-31T03:02:37;102227.13;;;4.78;86.03
68075;BME280;54864;52.002;5.468;2023-01-31T03:03:40;102225.38;;;4.78;86.25
68075;BME280;54864;52.002;5.468;2023-01-31T03:04:41;102219.28;;;4.76;86.58
68075;BME280;54864;52.002;5.468;2023-01-31T03:05:42;102222.78;;;4.83;86.79
68075;BME280;54864;52.002;5.468;2023-01-31T03:06:58;102218.41;;;4.94;85.63
68075;BME280;54864;52.002;5.468;2023-01-31T03:08:02;102214.06;;;4.92;85.65
68075;BME280;54864;52.002;5.468;2023-01-31T03:09:07;102223.66;;;5.02;85.88
68075;BME280;54864;52.002;5.468;2023-01-31T03:11:36;102220.16;;;5.03;84.92
68075;BME280;54864;52.002;5.468;2023-01-31T03:12:49;102223.66;;;5.02;85.89
68075;BME280;54864;52.002;5.468;2023-01-31T03:13:58;102208.84;;;5.04;86.14
68075;BME280;54864;52.002;5.468;2023-01-31T03:15:13;102214.06;;;5.05;85.89
68075;BME280;54864;52.002;5.468;2023-01-31T03:16:24;102214.06;;;5.04;85.67
68075;BME280;54864;52.002;5.468;2023-01-31T03:17:50;102214.94;;;5.09;86.04
68075;BME280;54864;52.002;5.468;2023-01-31T03:18:59;102212.31;;;5.17;85.86
68075;BME280;54864;52.002;5.468;2023-01-31T03:20:06;102207.97;;;5.14;85.51
68075;BME280;54864;52.002;5.468;2023-01-31T03:21:13;102214.06;;;5.18;85.81
68075;BME280;54864;52.002;5.468;2023-01-31T03:22:18;102214.97;;;5.21;85.68
68075;BME280;54864;52.002;5.468;2023-01-31T03:23:24;102199.25;;;5.32;85.12
68075;BME280;54864;52.002;5.468;2023-01-31T03:24:29;102214.06;;;5.31;84.88
68075;BME280;54864;52.002;5.468;2023-01-31T03:25:34;102208.84;;;5.34;84.87
68075;BME280;54864;52.002;5.468;2023-01-31T03:26:36;102208.84;;;5.34;84.44
68075;BME280;54864;52.002;5.468;2023-01-31T03:27:43;102201.00;;;5.37;84.67
68075;BME280;54864;52.002;5.468;2023-01-31T03:28:46;102200.97;;;5.45;84.37
68075;BME280;54864;52.002;5.468;2023-01-31T03:29:58;102199.22;;;5.49;83.95
68075;BME280;54864;52.002;5.468;2023-01-31T03:31:06;102207.94;;;5.55;83.52
68075;BME280;54864;52.002;5.468;2023-01-31T03:32:13;102200.09;;;5.51;83.19
68075;BME280;54864;52.002;5.468;2023-01-31T03:33:20;102202.69;;;5.55;82.86
68075;BME280;54864;52.002;5.468;2023-01-31T03:34:26;102204.44;;;5.55;83.17
68075;BME280;54864;52.002;5.468;2023-01-31T03:35:30;102196.59;;;5.55;83.49
68075;BME280;54864;52.002;5.468;2023-01-31T03:36:38;102193.97;;;5.58;83.57
68075;BME280;54864;52.002;5.468;2023-01-31T03:37:46;102201.81;;;5.55;83.75
68075;BME280;54864;52.002;5.468;2023-01-31T03:38:56;102193.09;;;5.57;83.79
68075;BME280;54864;52.002;5.468;2023-01-31T03:40:04;102185.25;;;5.59;83.50
68075;BME280;54864;52.002;5.468;2023-01-31T03:41:13;102192.22;;;5.61;83.53
68075;BME280;54864;52.002;5.468;2023-01-31T03:42:23;102187.84;;;5.65;83.72
68075;BME280;54864;52.002;5.468;2023-01-31T03:43:30;102185.22;;;5.68;83.68
68075;BME280;54864;52.002;5.468;2023-01-31T03:44:39;102190.44;;;5.69;83.57
68075;BME280;54864;52.002;5.468;2023-01-31T03:45:45;102192.19;;;5.72;83.57
68075;BME280;54864;52.002;5.468;2023-01-31T03:46:51;102185.19;;;5.72;83.35
68075;BME280;54864;52.002;5.468;2023-01-31T03:47:55;102192.16;;;5.80;83.18
68075;BME280;54864;52.002;5.468;2023-01-31T03:48:59;102195.63;;;5.80;82.91
68075;BME280;54864;52.002;5.468;2023-01-31T03:50:06;102185.19;;;5.77;83.24
68075;BME280;54864;52.002;5.468;2023-01-31T03:51:15;102193.88;;;5.82;83.00
68075;BME280;54864;52.002;5.468;2023-01-31T03:52:21;102191.28;;;5.79;83.62
68075;BME280;54864;52.002;5.468;2023-01-31T03:53:29;102187.78;;;5.77;83.77
68075;BME280;54864;52.002;5.468;2023-01-31T03:54:36;102183.44;;;5.76;84.07
68075;BME280;54864;52.002;5.468;2023-01-31T03:55:42;102183.44;;;5.79;83.74
68075;BME280;54864;52.002;5.468;2023-01-31T03:56:49;102179.94;;;5.82;83.40
68075;BME280;54864;52.002;5.468;2023-01-31T03:57:54;102182.59;;;5.89;83.39
68075;BME280;54864;52.002;5.468;2023-01-31T03:58:59;102180.78;;;5.84;83.18
68075;BME280;54864;52.002;5.468;2023-01-31T04:00:06;102186.91;;;5.81;83.05
68075;BME280;54864;52.002;5.468;2023-01-31T04:01:10;102177.31;;;5.94;83.08
68075;BME280;54864;52.002;5.468;2023-01-31T04:02:15;102181.69;;;5.89;83.31
68075;BME280;54864;52.002;5.468;2023-01-31T04:03:20;102178.19;;;5.93;83.42
68075;BME280;54864;52.002;5.468;2023-01-31T04:04:27;102179.91;;;5.83;83.81
68075;BME280;54864;52.002;5.468;2023-01-31T04:05:33;102173.84;;;5.73;84.29
68075;BME280;54864;52.002;5.468;2023-01-31T04:06:35;102176.44;;;5.83;84.55
68075;BME280;54864;52.002;5.468;2023-01-31T04:07:39;102180.81;;;5.81;84.24
68075;BME280;54864;52.002;5.468;2023-01-31T04:08:41;102170.34;;;5.82;84.10
68075;BME280;54864;52.002;5.468;2023-01-31T04:09:42;102178.19;;;5.88;83.42
68075;BME280;54864;52.002;5.468;2023-01-31T04:10:45;102178.19;;;5.85;83.54
68075;BME280;54864;52.002;5.468;2023-01-31T04:11:49;102172.97;;;5.90;82.83
68075;BME280;54864;52.002;5.468;2023-01-31T04:12:52;102171.22;;;5.86;83.77
68075;BME280;54864;52.002;5.468;2023-01-31T04:13:53;102176.44;;;5.86;83.79
68075;BME280;54864;52.002;5.468;2023-01-31T04:14:55;102178.19;;;5.79;83.69
68075;BME280;54864;52.002;5.468;2023-01-31T04:15:56;102175.59;;;5.78;84.57
68075;BME280;54864;52.002;5.468;2023-01-31T04:16:57;102172.97;;;5.73;84.83
68075;BME280;54864;52.002;5.468;2023-01-31T04:17:59;102171.25;;;5.69;85.05
68075;BME280;54864;52.002;5.468;2023-01-31T04:19:01;102176.50;;;5.67;85.48
68075;BME280;54864;52.002;5.468;2023-01-31T04:20:03;102176.53;;;5.58;85.95
68075;BME280;54864;52.002;5.468;2023-01-31T04:21:07;102169.50;;;5.68;86.07
68075;BME280;54864;52.002;5.468;2023-01-31T04:22:09;102164.28;;;5.71;85.61
68075;BME280;54864;52.002;5.468;2023-01-31T04:23:11;102160.75;;;5.77;85.13
68075;BME280;54864;52.002;5.468;2023-01-31T04:24:11;102160.75;;;5.80;84.42
68075;BME280;54864;52.002;5.468;2023-01-31T04:25:13;102165.09;;;5.87;84.26
68075;BME280;54864;52.002;5.468;2023-01-31T04:26:14;102162.50;;;5.74;84.50
68075;BME280;54864;52.002;5.468;2023-01-31T04:27:16;102160.75;;;5.81;84.06
68075;BME280;54864;52.002;5.468;2023-01-31T04:28:17;102156.44;;;5.69;84.09
68075;BME280;54864;52.002;5.468;2023-01-31T04:29:19;102162.53;;;5.70;84.23
68075;BME280;54864;52.002;5.468;2023-01-31T04:30:19;102162.50;;;5.85;84.17
68075;BME280;54864;52.002;5.468;2023-01-31T04:31:21;102157.28;;;5.76;83.41
68075;BME280;54864;52.002;5.468;2023-01-31T04:32:22;102161.59;;;5.82;83.72
68075;BME280;54864;52.002;5.468;2023-01-31T04:33:24;102158.16;;;5.77;84.29
68075;BME280;54864;52.002;5.468;2023-01-31T04:34:24;102163.38;;;5.77;83.76
68075;BME280;54864;52.002;5.468;2023-01-31T04:35:26;102152.94;;;5.72;83.87
68075;BME280;54864;52.002;5.468;2023-01-31T04:36:28;102161.66;;;5.69;84.25
68075;BME280;54864;52.002;5.468;2023-01-31T04:37:30;102159.91;;;5.74;84.01
68075;BME280;54864;52.002;5.468;2023-01-31T04:38:31;102154.69;;;5.65;83.97
68075;BME280;54864;52.002;5.468;2023-01-31T04:39:33;102159.94;;;5.59;84.93
68075;BME280;54864;52.002;5.468;2023-01-31T04:40:35;102152.16;;;5.46;86.02
68075;BME280;54864;52.002;5.468;2023-01-31T04:41:36;102160.81;;;5.60;86.07
68075;BME280;54864;52.002;5.468;2023-01-31T04:42:37;102160.81;;;5.58;85.76
68075;BME280;54864;52.002;5.468;2023-01-31T04:43:38;102150.38;;;5.52;85.78
68075;BME280;54864;52.002;5.468;2023-01-31T04:44:40;102155.59;;;5.63;85.73
68075;BME280;54864;52.002;5.468;2023-01-31T04:45:41;102159.91;;;5.71;85.50
68075;BME280;54864;52.002;5.468;2023-01-31T04:46:43;102151.19;;;5.71;85.19
68075;BME280;54864;52.002;5.468;2023-01-31T04:47:46;102156.44;;;5.68;85.71
68075;BME280;54864;52.002;5.468;2023-01-31T04:48:47;102153.81;;;5.69;85.08
68075;BME280;54864;52.002;5.468;2023-01-31T04:49:48;102154.66;;;5.78;84.88
68075;BME280;54864;52.002;5.468;2023-01-31T04:50:50;102139.03;;;5.61;86.00
68075;BME280;54864;52.002;5.468;2023-01-31T04:51:52;102150.31;;;5.72;85.61
68075;BME280;54864;52.002;5.468;2023-01-31T04:52:54;102148.59;;;5.68;86.14
68075;BME280;54864;52.002;5.468;2023-01-31T04:53:55;102141.59;;;5.71;86.07
68075;BME280;54864;52.002;5.468;2023-01-31T04:54:57;102144.22;;;5.71;86.14
68075;BME280;54864;52.002;5.468;2023-01-31T04:55:57;102145.97;;;5.71;85.95
68075;BME280;54864;52.002;5.468;2023-01-31T04:56:59;102139.84;;;5.72;86.29
68075;BME280;54864;52.002;5.468;2023-01-31T04:58:00;102124.13;;;5.78;86.01
68075;BME280;54864;52.002;5.468;2023-01-31T04:59:02;102131.09;;;5.90;85.07
68075;BME280;54864;52.002;5.468;2023-01-31T05:00:04;102125.84;;;5.79;84.76
68075;BME280;54864;52.002;5.468;2023-01-31T05:01:06;102112.78;;;5.79;85.21
68075;BME280;54864;52.002;5.468;2023-01-31T05:02:07;102117.16;;;5.89;85.01
68075;BME280;54864;52.002;5.468;2023-01-31T05:03:08;102120.59;;;5.97;84.59
68075;BME280;54864;52.002;5.468;2023-01-31T05:04:09;102123.25;;;5.85;84.51
68075;BME280;54864;52.002;5.468;2023-01-31T05:05:12;102113.66;;;5.78;85.38
68075;BME280;54864;52.002;5.468;2023-01-31T05:06:12;102114.50;;;5.82;85.51
68075;BME280;54864;52.002;5.468;2023-01-31T05:07:15;102112.78;;;5.74;85.82
68075;BME280;54864;52.002;5.468;2023-01-31T05:08:16;102110.16;;;5.81;86.14
68075;BME280;54864;52.002;5.468;2023-01-31T05:09:18;102121.50;;;5.78;86.40
68075;BME280;54864;52.002;5.468;2023-01-31T05:10:19;102115.38;;;5.81;86.32
68075;BME280;54864;52.002;5.468;2023-01-31T05:11:21;102118.00;;;5.84;85.84
68075;BME280;54864;52.002;5.468;2023-01-31T05:12:22;102122.38;;;5.76;86.35
68075;BME280;54864;52.002;5.468;2023-01-31T05:13:24;102123.28;;;5.73;86.57
68075;BME280;54864;52.002;5.468;2023-01-31T05:14:24;102127.63;;;5.72;87.00
68075;BME280;54864;52.002;5.468;2023-01-31T05:15:26;102116.25;;;5.80;86.89
68075;BME280;54864;52.002;5.468;2023-01-31T05:16:27;102117.13;;;5.80;86.78
68075;BME280;54864;52.002;5.468;2023-01-31T05:17:29;102122.38;;;5.79;87.02
68075;BME280;54864;52.002;5.468;2023-01-31T05:18:30;102119.75;;;5.79;87.21
68075;BME280;54864;52.002;5.468;2023-01-31T05:19:34;102123.25;;;5.74;87.08
68075;BME280;54864;52.002;5.468;2023-01-31T05:20:36;102119.81;;;5.69;87.47
68075;BME280;54864;52.002;5.468;2023-01-31T05:21:40;102123.31;;;5.67;87.79
68075;BME280;54864;52.002;5.468;2023-01-31T05:22:55;102112.78;;;5.76;87.52
68075;BME280;54864;52.002;5.468;2023-01-31T05:23:57;102109.25;;;5.85;86.94
68075;BME280;54864;52.002;5.468;2023-01-31T05:24:58;102110.13;;;5.97;86.64
68075;BME280;54864;52.002;5.468;2023-01-31T05:26:00;102111.00;;;5.95;86.40
68075;BME280;54864;52.002;5.468;2023-01-31T05:27:02;102104.06;;;5.92;86.49
68075;BME280;54864;52.002;5.468;2023-01-31T05:28:04;102110.13;;;5.99;86.34
68075;BME280;54864;52.002;5.468;2023-01-31T05:29:05;102108.34;;;6.02;86.26
68075;BME280;54864;52.002;5.468;2023-01-31T05:30:08;102104.94;;;5.90;86.74
68075;BME280;54864;52.002;5.468;2023-01-31T05:31:09;102107.56;;;5.90;87.04
68075;BME280;54864;52.002;5.468;2023-01-31T05:32:12;102104.84;;;6.03;86.88
68075;BME280;54864;52.002;5.468;2023-01-31T05:33:14;102104.81;;;6.10;86.01
68075;BME280;54864;52.002;5.468;2023-01-31T05:34:15;102099.56;;;6.14;85.64
68075;BME280;54864;52.002;5.468;2023-01-31T05:35:16;102101.28;;;6.18;85.01
68075;BME280;54864;52.002;5.468;2023-01-31T05:36:18;102104.81;;;6.10;85.42
68075;BME280;54864;52.002;5.468;2023-01-31T05:37:21;102101.28;;;6.15;85.38
68075;BME280;54864;52.002;5.468;2023-01-31T05:38:24;102103.88;;;6.21;84.99
68075;BME280;54864;52.002;5.468;2023-01-31T05:39:26;102105.72;;;6.02;85.49
68075;BME280;54864;52.002;5.468;2023-01-31T05:40:27;102104.78;;;6.14;85.89
68075;BME280;54864;52.002;5.468;2023-01-31T05:41:31;102106.56;;;6.11;84.95
68075;BME280;54864;52.002;5.468;2023-01-31T05:42:32;102104.78;;;6.13;85.17
68075;BME280;54864;52.002;5.468;2023-01-31T05:43:34;102099.47;;;6.23;84.77
68075;BME280;54864;52.002;5.468;2023-01-31T05:44:34;102103.88;;;6.21;84.52
68075;BME280;54864;52.002;5.468;2023-01-31T05:45:36;102107.44;;;6.11;85.18